Mostly Cloudy Current Weather (METAR) For Cancun Airport

All times on the weather descriptions are local

Observed at 19:44 - (21 mins ago)

Mostly Cloudy

24°C

Mostly Cloudy
Clouds: Scattered Clouds at 1,500ft, Broken Clouds at 25,000ft
Wind: 040° at 06 knots
Visibility: 7 statute miles
QNH:
Dew Point: 22°C
Runway in Use: Likely Runway 12

Sunrise Today: 06:00
Sunset Today: 17:06

Forecast Weather (TAF) For Cancun Airport

Issued at 18:00 - (8 days 21 hrs ago)


Runway in Use: Unable to determine, wind is clam

Forecast valid until 18:00 on Saturday

METAR/TAF RAW METAR / TAF

MMUN 210144Z 04006KT 7SM SCT015 BKN250 24/22 A3005 RMK 8/508 OCNL DROPS

Weather Widget

Put weather from any of our airports on your website with our weather widget.

Find Another Search

Airport Search


Please Wait Please Wait - Loading
Close
Close

Login

Username:

Password:

Remember Me:

Remember me on this computer

Forgotten your password? Get a reset password sent to your registered e-mail address

Close

User Private Message

Subject:

Message: